sensor_id;sensor_type;location;lat;lon;timestamp;temperature;humidity
7530;DHT22;3806;52.270;10.544;2023-05-06T00:01:30;14.50;99.90
7530;DHT22;3806;52.270;10.544;2023-05-06T00:03:56;14.50;99.90
7530;DHT22;3806;52.270;10.544;2023-05-06T00:06:21;14.50;99.90
7530;DHT22;3806;52.270;10.544;2023-05-06T00:08:47;14.50;99.90
7530;DHT22;3806;52.270;10.544;2023-05-06T00:11:12;14.60;99.90
7530;DHT22;3806;52.270;10.544;2023-05-06T00:13:38;14.60;99.90
7530;DHT22;3806;52.270;10.544;2023-05-06T00:16:04;14.60;99.90
7530;DHT22;3806;52.270;10.544;2023-05-06T00:18:29;14.60;99.90
7530;DHT22;3806;52.270;10.544;2023-05-06T00:20:55;14.60;99.90
7530;DHT22;3806;52.270;10.544;2023-05-06T00:23:20;14.70;99.90
7530;DHT22;3806;52.270;10.544;2023-05-06T00:25:46;14.70;99.90
7530;DHT22;3806;52.270;10.544;2023-05-06T00:28:11;14.70;99.90
7530;DHT22;3806;52.270;10.544;2023-05-06T00:30:37;14.70;99.90
7530;DHT22;3806;52.270;10.544;2023-05-06T00:33:02;14.70;99.90
7530;DHT22;3806;52.270;10.544;2023-05-06T00:35:28;14.70;99.90
7530;DHT22;3806;52.270;10.544;2023-05-06T00:38:08;14.80;99.90
7530;DHT22;3806;52.270;10.544;2023-05-06T00:40:35;14.80;99.90
7530;DHT22;3806;52.270;10.544;2023-05-06T00:43:01;14.80;99.90
7530;DHT22;3806;52.270;10.544;2023-05-06T00:45:26;14.80;99.90
7530;DHT22;3806;52.270;10.544;2023-05-06T00:47:53;14.80;99.90
7530;DHT22;3806;52.270;10.544;2023-05-06T00:50:19;14.80;99.90
7530;DHT22;3806;52.270;10.544;2023-05-06T00:52:45;14.80;99.90
7530;DHT22;3806;52.270;10.544;2023-05-06T00:55:11;14.90;99.90
7530;DHT22;3806;52.270;10.544;2023-05-06T00:57:37;14.90;99.90
7530;DHT22;3806;52.270;10.544;2023-05-06T01:00:04;14.90;99.90
7530;DHT22;3806;52.270;10.544;2023-05-06T01:02:31;14.90;99.90
7530;DHT22;3806;52.270;10.544;2023-05-06T01:04:57;14.90;99.90
7530;DHT22;3806;52.270;10.544;2023-05-06T01:07:26;14.90;99.90
7530;DHT22;3806;52.270;10.544;2023-05-06T01:09:59;14.90;99.90
7530;DHT22;3806;52.270;10.544;2023-05-06T01:12:42;14.90;99.90
7530;DHT22;3806;52.270;10.544;2023-05-06T01:15:20;14.90;99.90
7530;DHT22;3806;52.270;10.544;2023-05-06T01:17:50;14.90;99.90
7530;DHT22;3806;52.270;10.544;2023-05-06T01:20:17;14.90;99.90
7530;DHT22;3806;52.270;10.544;2023-05-06T01:22:45;14.90;99.90
7530;DHT22;3806;52.270;10.544;2023-05-06T01:25:20;14.90;99.90
7530;DHT22;3806;52.270;10.544;2023-05-06T01:27:46;14.90;99.90
7530;DHT22;3806;52.270;10.544;2023-05-06T01:30:13;15.00;99.90
7530;DHT22;3806;52.270;10.544;2023-05-06T01:32:52;15.00;99.90
7530;DHT22;3806;52.270;10.544;2023-05-06T01:35:53;14.90;99.90
7530;DHT22;3806;52.270;10.544;2023-05-06T01:41:10;15.00;99.90
7530;DHT22;3806;52.270;10.544;2023-05-06T01:43:40;14.90;99.90
7530;DHT22;3806;52.270;10.544;2023-05-06T01:46:11;14.90;99.90
7530;DHT22;3806;52.270;10.544;2023-05-06T01:48:38;14.80;99.90
7530;DHT22;3806;52.270;10.544;2023-05-06T01:51:04;14.90;99.90
7530;DHT22;3806;52.270;10.544;2023-05-06T01:53:31;14.90;99.90
7530;DHT22;3806;52.270;10.544;2023-05-06T01:55:57;14.90;99.90
7530;DHT22;3806;52.270;10.544;2023-05-06T01:58:23;14.90;99.90
7530;DHT22;3806;52.270;10.544;2023-05-06T02:00:48;14.90;99.90
7530;DHT22;3806;52.270;10.544;2023-05-06T02:03:14;14.90;99.90
7530;DHT22;3806;52.270;10.544;2023-05-06T02:05:39;14.90;99.90
7530;DHT22;3806;52.270;10.544;2023-05-06T02:08:05;14.90;99.90
7530;DHT22;3806;52.270;10.544;2023-05-06T02:10:30;14.80;99.90
7530;DHT22;3806;52.270;10.544;2023-05-06T02:12:56;14.90;99.90
7530;DHT22;3806;52.270;10.544;2023-05-06T02:15:21;14.80;99.90
7530;DHT22;3806;52.270;10.544;2023-05-06T02:17:47;14.80;99.90
7530;DHT22;3806;52.270;10.544;2023-05-06T02:20:13;14.90;99.90
7530;DHT22;3806;52.270;10.544;2023-05-06T02:22:39;14.90;99.90
7530;DHT22;3806;52.270;10.544;2023-05-06T02:25:05;14.90;99.90
7530;DHT22;3806;52.270;10.544;2023-05-06T02:27:30;14.90;99.90
7530;DHT22;3806;52.270;10.544;2023-05-06T02:29:56;14.90;99.90
7530;DHT22;3806;52.270;10.544;2023-05-06T02:32:21;14.90;99.90
7530;DHT22;3806;52.270;10.544;2023-05-06T02:34:47;14.90;99.90
7530;DHT22;3806;52.270;10.544;2023-05-06T02:37:13;14.80;99.90
7530;DHT22;3806;52.270;10.544;2023-05-06T02:39:38;14.80;99.90
7530;DHT22;3806;52.270;10.544;2023-05-06T02:42:04;14.80;99.90
7530;DHT22;3806;52.270;10.544;2023-05-06T02:44:29;14.70;99.90
7530;DHT22;3806;52.270;10.544;2023-05-06T02:46:55;14.70;99.90
7530;DHT22;3806;52.270;10.544;2023-05-06T02:49:21;14.70;99.90
7530;DHT22;3806;52.270;10.544;2023-05-06T02:51:46;14.60;99.90
7530;DHT22;3806;52.270;10.544;2023-05-06T02:54:12;14.60;99.90
7530;DHT22;3806;52.270;10.544;2023-05-06T02:56:37;14.50;99.90
7530;DHT22;3806;52.270;10.544;2023-05-06T02:59:03;14.50;99.90
7530;DHT22;3806;52.270;10.544;2023-05-06T03:01:28;14.50;99.90
7530;DHT22;3806;52.270;10.544;2023-05-06T03:03:54;14.40;99.90
7530;DHT22;3806;52.270;10.544;2023-05-06T03:06:19;14.40;99.90
7530;DHT22;3806;52.270;10.544;2023-05-06T03:08:45;14.40;99.90
7530;DHT22;3806;52.270;10.544;2023-05-06T03:11:10;14.40;99.90
7530;DHT22;3806;52.270;10.544;2023-05-06T03:13:36;14.30;99.90
7530;DHT22;3806;52.270;10.544;2023-05-06T03:16:01;14.30;99.90
7530;DHT22;3806;52.270;10.544;2023-05-06T03:18:27;14.30;99.90
7530;DHT22;3806;52.270;10.544;2023-05-06T03:20:53;14.30;99.90
7530;DHT22;3806;52.270;10.544;2023-05-06T03:23:18;14.30;99.90
7530;DHT22;3806;52.270;10.544;2023-05-06T03:25:44;14.30;99.90
7530;DHT22;3806;52.270;10.544;2023-05-06T03:28:10;14.20;99.90
7530;DHT22;3806;52.270;10.544;2023-05-06T03:30:36;14.10;99.90
7530;DHT22;3806;52.270;10.544;2023-05-06T03:33:02;14.20;99.90
7530;DHT22;3806;52.270;10.544;2023-05-06T03:35:27;14.20;99.90
7530;DHT22;3806;52.270;10.544;2023-05-06T03:37:53;14.20;99.90
7530;DHT22;3806;52.270;10.544;2023-05-06T03:40:18;14.20;99.90
7530;DHT22;3806;52.270;10.544;2023-05-06T03:42:45;14.20;99.90
7530;DHT22;3806;52.270;10.544;2023-05-06T03:45:10;14.20;99.90
7530;DHT22;3806;52.270;10.544;2023-05-06T03:47:36;14.20;99.90
7530;DHT22;3806;52.270;10.544;2023-05-06T03:50:02;14.20;99.90
7530;DHT22;3806;52.270;10.544;2023-05-06T03:52:28;14.10;99.90
7530;DHT22;3806;52.270;10.544;2023-05-06T03:54:54;14.10;99.90
7530;DHT22;3806;52.270;10.544;2023-05-06T03:57:20;14.10;99.90
7530;DHT22;3806;52.270;10.544;2023-05-06T03:59:45;14.10;99.90
7530;DHT22;3806;52.270;10.544;2023-05-06T04:02:11;14.10;99.90
7530;DHT22;3806;52.270;10.544;2023-05-06T04:04:36;14.10;99.90
7530;DHT22;3806;52.270;10.544;2023-05-06T04:07:02;14.10;99.90
7530;DHT22;3806;52.270;10.544;2023-05-06T04:09:28;14.10;99.90
7530;DHT22;3806;52.270;10.544;2023-05-06T04:11:53;14.10;99.90
7530;DHT22;3806;52.270;10.544;2023-05-06T04:14:19;14.00;99.90
7530;DHT22;3806;52.270;10.544;2023-05-06T04:16:44;14.10;99.90
7530;DHT22;3806;52.270;10.544;2023-05-06T04:19:10;14.10;99.90
7530;DHT22;3806;52.270;10.544;2023-05-06T04:21:39;14.10;99.90
7530;DHT22;3806;52.270;10.544;2023-05-06T04:24:06;14.20;99.90
7530;DHT22;3806;52.270;10.544;2023-05-06T04:26:32;14.20;99.90
7530;DHT22;3806;52.270;10.544;2023-05-06T04:28:58;14.20;99.90
7530;DHT22;3806;52.270;10.544;2023-05-06T04:31:23;14.10;99.90
7530;DHT22;3806;52.270;10.544;2023-05-06T04:33:49;14.30;99.90
7530;DHT22;3806;52.270;10.544;2023-05-06T04:36:14;14.20;99.90
7530;DHT22;3806;52.270;10.544;2023-05-06T04:38:40;14.30;99.90
7530;DHT22;3806;52.270;10.544;2023-05-06T04:41:06;14.30;99.90
7530;DHT22;3806;52.270;10.544;2023-05-06T04:43:31;14.30;99.90
7530;DHT22;3806;52.270;10.544;2023-05-06T04:45:57;14.30;99.90
7530;DHT22;3806;52.270;10.544;2023-05-06T04:48:22;14.30;99.90
7530;DHT22;3806;52.270;10.544;2023-05-06T04:50:48;14.30;99.90
7530;DHT22;3806;52.270;10.544;2023-05-06T04:53:14;14.30;99.90
7530;DHT22;3806;52.270;10.544;2023-05-06T04:55:40;14.30;99.90
7530;DHT22;3806;52.270;10.544;2023-05-06T04:58:06;14.30;99.90
7530;DHT22;3806;52.270;10.544;2023-05-06T05:00:32;14.30;99.90
7530;DHT22;3806;52.270;10.544;2023-05-06T05:02:58;14.40;99.90
7530;DHT22;3806;52.270;10.544;2023-05-06T05:05:25;14.30;99.90
7530;DHT22;3806;52.270;10.544;2023-05-06T05:07:51;14.40;99.90
7530;DHT22;3806;52.270;10.544;2023-05-06T05:10:16;14.40;99.90
7530;DHT22;3806;52.270;10.544;2023-05-06T05:12:42;14.40;99.90
7530;DHT22;3806;52.270;10.544;2023-05-06T05:15:07;14.20;99.90
7530;DHT22;3806;52.270;10.544;2023-05-06T05:17:33;14.30;99.90
7530;DHT22;3806;52.270;10.544;2023-05-06T05:19:58;14.30;99.90
7530;DHT22;3806;52.270;10.544;2023-05-06T05:22:24;14.30;99.90
7530;DHT22;3806;52.270;10.544;2023-05-06T05:24:50;14.30;99.90
7530;DHT22;3806;52.270;10.544;2023-05-06T05:27:15;14.30;99.90
7530;DHT22;3806;52.270;10.544;2023-05-06T05:29:41;14.30;99.90
7530;DHT22;3806;52.270;10.544;2023-05-06T05:32:06;14.30;99.90
7530;DHT22;3806;52.270;10.544;2023-05-06T05:34:32;14.40;99.90
7530;DHT22;3806;52.270;10.544;2023-05-06T05:36:57;14.40;99.90
7530;DHT22;3806;52.270;10.544;2023-05-06T05:39:23;14.40;99.90
7530;DHT22;3806;52.270;10.544;2023-05-06T05:41:49;14.40;99.90
7530;DHT22;3806;52.270;10.544;2023-05-06T05:44:14;14.50;99.90
7530;DHT22;3806;52.270;10.544;2023-05-06T05:46:42;14.50;99.90
7530;DHT22;3806;52.270;10.544;2023-05-06T05:49:08;14.50;99.90
7530;DHT22;3806;52.270;10.544;2023-05-06T05:51:33;14.50;99.90
7530;DHT22;3806;52.270;10.544;2023-05-06T05:53:59;14.60;99.90
7530;DHT22;3806;52.270;10.544;2023-05-06T05:56:24;14.60;99.90
7530;DHT22;3806;52.270;10.544;2023-05-06T05:58:50;14.70;99.90
7530;DHT22;3806;52.270;10.544;2023-05-06T06:01:16;14.70;99.90
7530;DHT22;3806;52.270;10.544;2023-05-06T06:03:42;14.70;99.90
7530;DHT22;3806;52.270;10.544;2023-05-06T06:06:08;14.60;99.90
7530;DHT22;3806;52.270;10.544;2023-05-06T06:08:34;14.50;99.90
7530;DHT22;3806;52.270;10.544;2023-05-06T06:11:00;14.40;99.90
7530;DHT22;3806;52.270;10.544;2023-05-06T06:13:28;14.40;99.90
7530;DHT22;3806;52.270;10.544;2023-05-06T06:15:55;14.30;99.90
7530;DHT22;3806;52.270;10.544;2023-05-06T06:18:20;14.30;99.90
7530;DHT22;3806;52.270;10.544;2023-05-06T06:20:46;14.20;99.90
7530;DHT22;3806;52.270;10.544;2023-05-06T06:23:11;14.30;99.90
7530;DHT22;3806;52.270;10.544;2023-05-06T06:25:37;14.20;99.90
7530;DHT22;3806;52.270;10.544;2023-05-06T06:28:02;14.30;99.90
7530;DHT22;3806;52.270;10.544;2023-05-06T06:30:28;14.30;99.90
7530;DHT22;3806;52.270;10.544;2023-05-06T06:32:54;14.30;99.90
7530;DHT22;3806;52.270;10.544;2023-05-06T06:35:20;14.40;99.90
7530;DHT22;3806;52.270;10.544;2023-05-06T06:37:47;14.40;99.90
7530;DHT22;3806;52.270;10.544;2023-05-06T06:40:14;14.50;99.90
7530;DHT22;3806;52.270;10.544;2023-05-06T06:42:39;14.50;99.90
7530;DHT22;3806;52.270;10.544;2023-05-06T06:45:07;14.60;99.90
7530;DHT22;3806;52.270;10.544;2023-05-06T06:47:33;14.70;99.90
7530;DHT22;3806;52.270;10.544;2023-05-06T06:49:58;14.80;99.90
7530;DHT22;3806;52.270;10.544;2023-05-06T06:52:24;14.90;99.90
7530;DHT22;3806;52.270;10.544;2023-05-06T06:54:49;15.00;99.90
7530;DHT22;3806;52.270;10.544;2023-05-06T06:57:15;15.00;99.90
7530;DHT22;3806;52.270;10.544;2023-05-06T06:59:41;15.10;99.90
7530;DHT22;3806;52.270;10.544;2023-05-06T07:02:06;15.10;99.90
7530;DHT22;3806;52.270;10.544;2023-05-06T07:04:32;15.20;99.90
7530;DHT22;3806;52.270;10.544;2023-05-06T07:06:57;15.20;99.90
7530;DHT22;3806;52.270;10.544;2023-05-06T07:09:23;15.20;99.90
7530;DHT22;3806;52.270;10.544;2023-05-06T07:11:48;15.10;99.90
7530;DHT22;3806;52.270;10.544;2023-05-06T07:14:14;15.10;99.90
7530;DHT22;3806;52.270;10.544;2023-05-06T07:16:39;15.00;99.90
7530;DHT22;3806;52.270;10.544;2023-05-06T07:19:05;14.90;99.90
7530;DHT22;3806;52.270;10.544;2023-05-06T07:21:31;14.90;99.90
7530;DHT22;3806;52.270;10.544;2023-05-06T07:23:57;14.90;99.90
7530;DHT22;3806;52.270;10.544;2023-05-06T07:26:23;14.80;99.90
7530;DHT22;3806;52.270;10.544;2023-05-06T07:28:48;14.80;99.90
7530;DHT22;3806;52.270;10.544;2023-05-06T07:31:14;14.80;99.90
7530;DHT22;3806;52.270;10.544;2023-05-06T07:33:40;14.80;99.90
7530;DHT22;3806;52.270;10.544;2023-05-06T07:36:06;14.90;99.90
7530;DHT22;3806;52.270;10.544;2023-05-06T07:38:33;14.80;99.90
7530;DHT22;3806;52.270;10.544;2023-05-06T07:40:58;14.80;99.90
7530;DHT22;3806;52.270;10.544;2023-05-06T07:43:24;14.80;99.90
7530;DHT22;3806;52.270;10.544;2023-05-06T07:45:49;14.90;99.90
7530;DHT22;3806;52.270;10.544;2023-05-06T07:48:15;15.00;99.90
7530;DHT22;3806;52.270;10.544;2023-05-06T07:50:40;15.10;99.90
7530;DHT22;3806;52.270;10.544;2023-05-06T07:53:06;15.20;99.90
7530;DHT22;3806;52.270;10.544;2023-05-06T07:55:32;15.30;99.90
7530;DHT22;3806;52.270;10.544;2023-05-06T07:57:57;15.40;99.90
7530;DHT22;3806;52.270;10.544;2023-05-06T08:00:23;15.50;99.90
7530;DHT22;3806;52.270;10.544;2023-05-06T08:02:48;15.60;99.90
7530;DHT22;3806;52.270;10.544;2023-05-06T08:05:14;15.80;99.90
7530;DHT22;3806;52.270;10.544;2023-05-06T08:07:40;16.10;99.90
7530;DHT22;3806;52.270;10.544;2023-05-06T08:10:07;16.60;99.90
7530;DHT22;3806;52.270;10.544;2023-05-06T08:12:34;17.00;99.90
7530;DHT22;3806;52.270;10.544;2023-05-06T08:15:00;17.40;99.90
7530;DHT22;3806;52.270;10.544;2023-05-06T08:17:26;17.70;99.90
7530;DHT22;3806;52.270;10.544;2023-05-06T08:19:51;18.00;99.90
7530;DHT22;3806;52.270;10.544;2023-05-06T08:22:17;18.10;99.90
7530;DHT22;3806;52.270;10.544;2023-05-06T08:24:42;18.00;99.90
7530;DHT22;3806;52.270;10.544;2023-05-06T08:27:08;17.80;99.90
7530;DHT22;3806;52.270;10.544;2023-05-06T08:29:33;17.70;99.90
7530;DHT22;3806;52.270;10.544;2023-05-06T08:31:59;17.80;99.90
7530;DHT22;3806;52.270;10.544;2023-05-06T08:34:26;18.10;99.90
7530;DHT22;3806;52.270;10.544;2023-05-06T08:36:51;18.20;99.90
7530;DHT22;3806;52.270;10.544;2023-05-06T08:39:18;18.20;99.90
7530;DHT22;3806;52.270;10.544;2023-05-06T08:41:47;18.40;99.90
7530;DHT22;3806;52.270;10.544;2023-05-06T08:44:17;18.90;99.90
7530;DHT22;3806;52.270;10.544;2023-05-06T08:46:44;19.80;99.90
7530;DHT22;3806;52.270;10.544;2023-05-06T08:49:11;20.40;99.10
7530;DHT22;3806;52.270;10.544;2023-05-06T08:51:37;21.00;97.40
7530;DHT22;3806;52.270;10.544;2023-05-06T08:54:03;21.70;96.10
7530;DHT22;3806;52.270;10.544;2023-05-06T08:56:32;22.10;94.30
7530;DHT22;3806;52.270;10.544;2023-05-06T08:58:59;22.50;92.60
7530;DHT22;3806;52.270;10.544;2023-05-06T09:01:26;22.90;91.00
7530;DHT22;3806;52.270;10.544;2023-05-06T09:03:53;23.30;87.70
7530;DHT22;3806;52.270;10.544;2023-05-06T09:06:18;23.60;84.30
7530;DHT22;3806;52.270;10.544;2023-05-06T09:08:44;23.70;82.00
7530;DHT22;3806;52.270;10.544;2023-05-06T09:11:24;23.70;80.80
7530;DHT22;3806;52.270;10.544;2023-05-06T09:13:50;23.80;78.90
7530;DHT22;3806;52.270;10.544;2023-05-06T09:16:31;23.90;75.10
7530;DHT22;3806;52.270;10.544;2023-05-06T09:18:57;23.90;74.80
7530;DHT22;3806;52.270;10.544;2023-05-06T09:21:51;24.00;74.50
7530;DHT22;3806;52.270;10.544;2023-05-06T09:24:17;24.10;72.80
7530;DHT22;3806;52.270;10.544;2023-05-06T09:26:44;24.00;71.80
7530;DHT22;3806;52.270;10.544;2023-05-06T09:29:10;23.60;72.00
7530;DHT22;3806;52.270;10.544;2023-05-06T09:31:43;23.20;72.60
7530;DHT22;3806;52.270;10.544;2023-05-06T09:34:10;22.60;73.80
7530;DHT22;3806;52.270;10.544;2023-05-06T09:36:36;22.10;75.60
7530;DHT22;3806;52.270;10.544;2023-05-06T09:39:02;21.60;77.90
7530;DHT22;3806;52.270;10.544;2023-05-06T09:41:28;21.30;80.60
7530;DHT22;3806;52.270;10.544;2023-05-06T09:43:55;21.30;83.00
7530;DHT22;3806;52.270;10.544;2023-05-06T09:46:22;21.40;83.70
7530;DHT22;3806;52.270;10.544;2023-05-06T09:48:50;21.40;84.10
7530;DHT22;3806;52.270;10.544;2023-05-06T09:51:16;21.50;83.20
7530;DHT22;3806;52.270;10.544;2023-05-06T09:53:43;21.50;81.80
7530;DHT22;3806;52.270;10.544;2023-05-06T09:56:10;21.80;81.00
7530;DHT22;3806;52.270;10.544;2023-05-06T09:58:36;22.20;80.60
7530;DHT22;3806;52.270;10.544;2023-05-06T10:01:04;22.60;78.50
7530;DHT22;3806;52.270;10.544;2023-05-06T10:03:30;22.90;76.50
7530;DHT22;3806;52.270;10.544;2023-05-06T10:05:57;22.90;73.70
7530;DHT22;3806;52.270;10.544;2023-05-06T10:08:25;22.70;72.80
7530;DHT22;3806;52.270;10.544;2023-05-06T10:10:51;22.50;73.70
7530;DHT22;3806;52.270;10.544;2023-05-06T10:13:19;22.40;75.30
7530;DHT22;3806;52.270;10.544;2023-05-06T10:15:47;22.40;76.80
7530;DHT22;3806;52.270;10.544;2023-05-06T10:18:17;22.40;77.20
7530;DHT22;3806;52.270;10.544;2023-05-06T10:20:44;22.40;76.40
7530;DHT22;3806;52.270;10.544;2023-05-06T10:23:23;22.30;76.20
7530;DHT22;3806;52.270;10.544;2023-05-06T10:25:53;22.40;76.90
7530;DHT22;3806;52.270;10.544;2023-05-06T10:28:20;22.70;76.30
7530;DHT22;3806;52.270;10.544;2023-05-06T10:30:47;23.10;74.00
7530;DHT22;3806;52.270;10.544;2023-05-06T10:33:14;23.40;72.80
7530;DHT22;3806;52.270;10.544;2023-05-06T10:38:11;23.40;69.60
7530;DHT22;3806;52.270;10.544;2023-05-06T10:40:38;23.20;69.10
7530;DHT22;3806;52.270;10.544;2023-05-06T10:43:27;23.40;70.30
7530;DHT22;3806;52.270;10.544;2023-05-06T10:46:13;23.70;68.80
7530;DHT22;3806;52.270;10.544;2023-05-06T10:51:38;23.90;64.40
7530;DHT22;3806;52.270;10.544;2023-05-06T10:56:35;24.30;58.90
7530;DHT22;3806;52.270;10.544;2023-05-06T10:59:11;24.50;58.70
7530;DHT22;3806;52.270;10.544;2023-05-06T11:01:41;24.80;57.70
7530;DHT22;3806;52.270;10.544;2023-05-06T11:04:18;24.80;57.50
7530;DHT22;3806;52.270;10.544;2023-05-06T11:06:45;24.90;57.50
7530;DHT22;3806;52.270;10.544;2023-05-06T11:09:16;24.90;57.50
7530;DHT22;3806;52.270;10.544;2023-05-06T11:12:05;24.80;57.80
7530;DHT22;3806;52.270;10.544;2023-05-06T11:14:35;24.70;56.90
7530;DHT22;3806;52.270;10.544;2023-05-06T11:17:27;24.40;55.60
7530;DHT22;3806;52.270;10.544;2023-05-06T11:22:42;24.00;57.10
7530;DHT22;3806;52.270;10.544;2023-05-06T11:25:09;24.10;57.70
7530;DHT22;3806;52.270;10.544;2023-05-06T11:27:37;24.20;56.90
7530;DHT22;3806;52.270;10.544;2023-05-06T11:30:04;24.40;56.80
7530;DHT22;3806;52.270;10.544;2023-05-06T11:32:31;24.60;56.70
7530;DHT22;3806;52.270;10.544;2023-05-06T11:34:57;24.90;56.50
7530;DHT22;3806;52.270;10.544;2023-05-06T11:37:27;25.20;55.30
7530;DHT22;3806;52.270;10.544;2023-05-06T11:39:53;25.20;54.90
7530;DHT22;3806;52.270;10.544;2023-05-06T11:42:26;24.90;54.00
7530;DHT22;3806;52.270;10.544;2023-05-06T11:44:59;24.50;54.40
7530;DHT22;3806;52.270;10.544;2023-05-06T11:47:25;24.00;55.50
7530;DHT22;3806;52.270;10.544;2023-05-06T11:49:53;23.60;56.20
7530;DHT22;3806;52.270;10.544;2023-05-06T11:52:19;23.50;57.40
7530;DHT22;3806;52.270;10.544;2023-05-06T11:54:45;23.30;57.70
7530;DHT22;3806;52.270;10.544;2023-05-06T11:57:12;23.20;58.10
7530;DHT22;3806;52.270;10.544;2023-05-06T11:59:39;23.00;58.10
7530;DHT22;3806;52.270;10.544;2023-05-06T12:02:10;22.60;58.60
7530;DHT22;3806;52.270;10.544;2023-05-06T12:04:44;22.40;59.40
7530;DHT22;3806;52.270;10.544;2023-05-06T12:07:12;22.10;60.50
7530;DHT22;3806;52.270;10.544;2023-05-06T12:09:40;21.70;61.50
7530;DHT22;3806;52.270;10.544;2023-05-06T12:12:07;21.40;63.50
7530;DHT22;3806;52.270;10.544;2023-05-06T12:14:37;21.10;64.50
7530;DHT22;3806;52.270;10.544;2023-05-06T12:17:04;21.10;65.80
7530;DHT22;3806;52.270;10.544;2023-05-06T12:19:31;21.20;66.50
7530;DHT22;3806;52.270;10.544;2023-05-06T12:22:17;21.30;66.10
7530;DHT22;3806;52.270;10.544;2023-05-06T12:24:44;21.40;66.30
7530;DHT22;3806;52.270;10.544;2023-05-06T12:27:10;21.50;67.50
7530;DHT22;3806;52.270;10.544;2023-05-06T12:29:36;21.60;67.70
7530;DHT22;3806;52.270;10.544;2023-05-06T12:32:09;21.70;67.80
7530;DHT22;3806;52.270;10.544;2023-05-06T12:34:37;21.70;67.80
7530;DHT22;3806;52.270;10.544;2023-05-06T12:37:04;21.60;67.90
7530;DHT22;3806;52.270;10.544;2023-05-06T12:39:37;21.50;68.50
7530;DHT22;3806;52.270;10.544;2023-05-06T12:42:04;21.20;69.70
7530;DHT22;3806;52.270;10.544;2023-05-06T12:44:35;20.80;71.50
7530;DHT22;3806;52.270;10.544;2023-05-06T12:49:54;20.20;74.50
7530;DHT22;3806;52.270;10.544;2023-05-06T12:52:22;20.10;76.30
7530;DHT22;3806;52.270;10.544;2023-05-06T12:54:48;20.00;77.90
7530;DHT22;3806;52.270;10.544;2023-05-06T12:57:14;20.00;79.10
7530;DHT22;3806;52.270;10.544;2023-05-06T12:59:42;20.20;79.60
7530;DHT22;3806;52.270;10.544;2023-05-06T13:02:08;20.40;78.50
7530;DHT22;3806;52.270;10.544;2023-05-06T13:04:34;20.70;77.20
7530;DHT22;3806;52.270;10.544;2023-05-06T13:06:59;21.10;76.80
7530;DHT22;3806;52.270;10.544;2023-05-06T13:09:25;21.40;75.30
7530;DHT22;3806;52.270;10.544;2023-05-06T13:11:51;21.50;73.10
7530;DHT22;3806;52.270;10.544;2023-05-06T13:14:16;21.60;72.10
7530;DHT22;3806;52.270;10.544;2023-05-06T13:16:42;21.70;71.10
7530;DHT22;3806;52.270;10.544;2023-05-06T13:19:09;21.90;70.40
7530;DHT22;3806;52.270;10.544;2023-05-06T13:21:36;22.10;69.90
7530;DHT22;3806;52.270;10.544;2023-05-06T13:24:02;22.10;69.10
7530;DHT22;3806;52.270;10.544;2023-05-06T13:26:28;22.00;69.20
7530;DHT22;3806;52.270;10.544;2023-05-06T13:28:53;21.80;69.50
7530;DHT22;3806;52.270;10.544;2023-05-06T13:31:19;21.50;70.40
7530;DHT22;3806;52.270;10.544;2023-05-06T13:33:46;21.30;72.00
7530;DHT22;3806;52.270;10.544;2023-05-06T13:36:12;21.10;73.00
7530;DHT22;3806;52.270;10.544;2023-05-06T13:38:37;21.00;73.50
7530;DHT22;3806;52.270;10.544;2023-05-06T13:41:04;20.90;73.60
7530;DHT22;3806;52.270;10.544;2023-05-06T13:43:30;20.90;73.20
7530;DHT22;3806;52.270;10.544;2023-05-06T13:45:55;20.80;73.20
7530;DHT22;3806;52.270;10.544;2023-05-06T13:48:21;20.70;73.70
7530;DHT22;3806;52.270;10.544;2023-05-06T13:50:46;20.60;74.00
7530;DHT22;3806;52.270;10.544;2023-05-06T13:53:13;20.50;75.20
7530;DHT22;3806;52.270;10.544;2023-05-06T13:55:39;20.20;76.90
7530;DHT22;3806;52.270;10.544;2023-05-06T13:58:05;20.00;78.90
7530;DHT22;3806;52.270;10.544;2023-05-06T14:00:32;19.90;79.50
7530;DHT22;3806;52.270;10.544;2023-05-06T14:02:58;19.80;79.80
7530;DHT22;3806;52.270;10.544;2023-05-06T14:05:23;19.90;80.80
7530;DHT22;3806;52.270;10.544;2023-05-06T14:07:50;19.90;80.40
7530;DHT22;3806;52.270;10.544;2023-05-06T14:10:15;19.90;80.70
7530;DHT22;3806;52.270;10.544;2023-05-06T14:12:41;19.90;81.30
7530;DHT22;3806;52.270;10.544;2023-05-06T14:15:07;20.00;81.60
7530;DHT22;3806;52.270;10.544;2023-05-06T14:17:34;20.10;81.50
7530;DHT22;3806;52.270;10.544;2023-05-06T14:20:00;20.30;81.90
7530;DHT22;3806;52.270;10.544;2023-05-06T14:22:28;20.40;80.60
7530;DHT22;3806;52.270;10.544;2023-05-06T14:24:54;20.50;80.30
7530;DHT22;3806;52.270;10.544;2023-05-06T14:27:20;20.40;79.30
7530;DHT22;3806;52.270;10.544;2023-05-06T14:29:46;20.30;79.10
7530;DHT22;3806;52.270;10.544;2023-05-06T14:32:11;20.30;80.10
7530;DHT22;3806;52.270;10.544;2023-05-06T14:34:37;20.20;80.10
7530;DHT22;3806;52.270;10.544;2023-05-06T14:37:03;20.20;80.30
7530;DHT22;3806;52.270;10.544;2023-05-06T14:39:29;20.30;80.20
7530;DHT22;3806;52.270;10.544;2023-05-06T14:41:55;20.30;79.50
7530;DHT22;3806;52.270;10.544;2023-05-06T14:44:20;20.40;80.00
7530;DHT22;3806;52.270;10.544;2023-05-06T14:46:46;20.40;80.20
7530;DHT22;3806;52.270;10.544;2023-05-06T14:49:12;20.40;79.90
7530;DHT22;3806;52.270;10.544;2023-05-06T14:51:40;20.40;79.20
7530;DHT22;3806;52.270;10.544;2023-05-06T14:54:05;20.40;79.80
7530;DHT22;3806;52.270;10.544;2023-05-06T14:56:31;20.20;81.00
7530;DHT22;3806;52.270;10.544;2023-05-06T14:58:56;20.00;82.80
7530;DHT22;3806;52.270;10.544;2023-05-06T15:01:22;19.90;83.70
7530;DHT22;3806;52.270;10.544;2023-05-06T15:03:48;19.60;84.60
7530;DHT22;3806;52.270;10.544;2023-05-06T15:06:19;19.60;85.40
7530;DHT22;3806;52.270;10.544;2023-05-06T15:08:45;19.50;84.80
7530;DHT22;3806;52.270;10.544;2023-05-06T15:11:16;19.40;85.80
7530;DHT22;3806;52.270;10.544;2023-05-06T15:13:42;19.20;86.50
7530;DHT22;3806;52.270;10.544;2023-05-06T15:16:07;19.10;86.50
7530;DHT22;3806;52.270;10.544;2023-05-06T15:18:33;19.00;87.00
7530;DHT22;3806;52.270;10.544;2023-05-06T15:20:59;18.80;88.20
7530;DHT22;3806;52.270;10.544;2023-05-06T15:23:26;18.80;88.90
7530;DHT22;3806;52.270;10.544;2023-05-06T15:25:52;18.80;89.60
7530;DHT22;3806;52.270;10.544;2023-05-06T15:28:18;18.80;90.40
7530;DHT22;3806;52.270;10.544;2023-05-06T15:30:44;18.80;90.20
7530;DHT22;3806;52.270;10.544;2023-05-06T15:33:10;18.90;90.40
7530;DHT22;3806;52.270;10.544;2023-05-06T15:35:35;18.90;90.70
7530;DHT22;3806;52.270;10.544;2023-05-06T15:38:04;18.80;91.20
7530;DHT22;3806;52.270;10.544;2023-05-06T15:40:30;18.70;91.70
7530;DHT22;3806;52.270;10.544;2023-05-06T15:42:57;18.60;91.80
7530;DHT22;3806;52.270;10.544;2023-05-06T15:45:23;18.40;92.00
7530;DHT22;3806;52.270;10.544;2023-05-06T15:47:48;18.30;92.50
7530;DHT22;3806;52.270;10.544;2023-05-06T15:50:14;18.10;93.20
7530;DHT22;3806;52.270;10.544;2023-05-06T15:52:40;18.00;93.70
7530;DHT22;3806;52.270;10.544;2023-05-06T15:55:10;18.00;94.30
7530;DHT22;3806;52.270;10.544;2023-05-06T15:57:36;17.80;94.80
7530;DHT22;3806;52.270;10.544;2023-05-06T16:00:07;17.70;95.60